Terminal Aerodrome Forecast
Issued by NWS

Current Version | Previous Version | Text Only | Print | Product List | Glossary On
Versions: 1 2 3 4 5 6 7 8 9 10 11 12 13
000
FTUS46 KSEW 160534
TAFBLI
TAF
KBLI 160534Z 1606/1706 07003KT P6SM FEW120
     FM160800 16013KT P6SM -RA SCT025 OVC070
     FM161100 17008KT P6SM -RA OVC025
     FM161600 18007KT P6SM VCSH SCT025 OVC040
     FM161900 17010G17KT P6SM VCSH SCT025 BKN040=

USA.gov is the U.S. government's official web portal to all federal, state and local government web resources and services.